Terminal Aerodrome Forecast
Issued by NWS

Home | Current Version | Previous Version | Text Only | Print | Product List | Glossary Off
Versions: 1 2 3 4 5 6 7 8 9 10 11 12 13 14 15 16 17 18

658
FTUS42 KMHX 310723 AAA
TAFPGV
TAF AMD
KPGV 310723Z 3107/0106 00000KT 1SM BR OVC003
     FM311400 VRB04KT P6SM VCSH SCT008 OVC025
     FM311700 05007KT 5SM -SHRA OVC025
     FM010000 09006KT P6SM VCSH OVC050
      AMD LTD TO CLD VIS AND WIND=

USA.gov is the U.S. government's official web portal to all federal, state and local government web resources and services.